Aviation Digital Data Service (ADDS)

Output produced by METARs form (0017 UTC 23 February 2017)
found at http://aviationweather.gov/adds/metars/
 
KFAY 222320Z 2300/2324 VRB03KT P6SM FEW030 BKN070 OVC150 
     TEMPO 2309/2312 6SM BR 
     FM231400 13005KT P6SM SCT035 BKN100